sensor_id;sensor_type;location;lat;lon;timestamp;P1;durP1;ratioP1;P2;durP2;ratioP2
56999;SDS011;42891;50.006;21.964;2023-04-03T00:03:42;4.50;;;3.95;;
56999;SDS011;42891;50.006;21.964;2023-04-03T00:07:42;4.78;;;4.38;;
56999;SDS011;42891;50.006;21.964;2023-04-03T00:11:42;4.38;;;3.97;;
56999;SDS011;42891;50.006;21.964;2023-04-03T00:15:43;4.43;;;4.03;;
56999;SDS011;42891;50.006;21.964;2023-04-03T00:19:43;4.75;;;4.25;;
56999;SDS011;42891;50.006;21.964;2023-04-03T00:23:44;5.20;;;4.70;;
56999;SDS011;42891;50.006;21.964;2023-04-03T00:27:45;5.28;;;4.78;;
56999;SDS011;42891;50.006;21.964;2023-04-03T00:31:46;5.50;;;5.00;;
56999;SDS011;42891;50.006;21.964;2023-04-03T00:35:46;6.63;;;5.47;;
56999;SDS011;42891;50.006;21.964;2023-04-03T00:39:46;5.95;;;5.03;;
56999;SDS011;42891;50.006;21.964;2023-04-03T00:43:47;5.15;;;4.65;;
56999;SDS011;42891;50.006;21.964;2023-04-03T00:47:47;5.30;;;4.80;;
56999;SDS011;42891;50.006;21.964;2023-04-03T00:51:48;5.22;;;4.72;;
56999;SDS011;42891;50.006;21.964;2023-04-03T00:55:48;4.75;;;4.30;;
56999;SDS011;42891;50.006;21.964;2023-04-03T00:59:51;5.35;;;4.85;;
56999;SDS011;42891;50.006;21.964;2023-04-03T01:03:58;5.53;;;5.03;;
56999;SDS011;42891;50.006;21.964;2023-04-03T01:07:59;5.63;;;5.07;;
56999;SDS011;42891;50.006;21.964;2023-04-03T01:16:19;6.10;;;5.47;;
56999;SDS011;42891;50.006;21.964;2023-04-03T01:24:36;5.50;;;4.55;;
56999;SDS011;42891;50.006;21.964;2023-04-03T01:28:38;4.57;;;4.18;;
56999;SDS011;42891;50.006;21.964;2023-04-03T01:32:39;4.68;;;3.95;;
56999;SDS011;42891;50.006;21.964;2023-04-03T01:36:39;4.43;;;4.00;;
56999;SDS011;42891;50.006;21.964;2023-04-03T01:40:40;5.10;;;4.35;;
56999;SDS011;42891;50.006;21.964;2023-04-03T01:44:41;4.47;;;4.07;;
56999;SDS011;42891;50.006;21.964;2023-04-03T01:48:41;3.80;;;3.40;;
56999;SDS011;42891;50.006;21.964;2023-04-03T01:52:42;4.30;;;3.17;;
56999;SDS011;42891;50.006;21.964;2023-04-03T01:56:42;3.70;;;3.33;;
56999;SDS011;42891;50.006;21.964;2023-04-03T02:00:43;3.90;;;3.50;;
56999;SDS011;42891;50.006;21.964;2023-04-03T02:04:43;4.10;;;3.80;;
56999;SDS011;42891;50.006;21.964;2023-04-03T02:08:44;3.13;;;2.90;;
56999;SDS011;42891;50.006;21.964;2023-04-03T02:12:44;3.63;;;3.33;;
56999;SDS011;42891;50.006;21.964;2023-04-03T02:16:45;3.38;;;3.08;;
56999;SDS011;42891;50.006;21.964;2023-04-03T02:20:46;3.40;;;3.10;;
56999;SDS011;42891;50.006;21.964;2023-04-03T02:24:47;3.10;;;2.78;;
56999;SDS011;42891;50.006;21.964;2023-04-03T02:28:47;3.60;;;3.30;;
56999;SDS011;42891;50.006;21.964;2023-04-03T02:32:47;3.22;;;3.00;;
56999;SDS011;42891;50.006;21.964;2023-04-03T02:36:48;3.25;;;2.95;;
56999;SDS011;42891;50.006;21.964;2023-04-03T02:40:48;3.05;;;2.83;;
56999;SDS011;42891;50.006;21.964;2023-04-03T02:44:49;3.53;;;3.22;;
56999;SDS011;42891;50.006;21.964;2023-04-03T02:48:49;3.20;;;2.90;;
56999;SDS011;42891;50.006;21.964;2023-04-03T02:52:49;3.42;;;3.10;;
56999;SDS011;42891;50.006;21.964;2023-04-03T02:56:50;3.50;;;3.20;;
56999;SDS011;42891;50.006;21.964;2023-04-03T03:00:50;4.53;;;3.35;;
56999;SDS011;42891;50.006;21.964;2023-04-03T03:04:50;3.38;;;3.08;;
56999;SDS011;42891;50.006;21.964;2023-04-03T03:08:51;4.78;;;4.00;;
56999;SDS011;42891;50.006;21.964;2023-04-03T03:12:51;3.83;;;3.20;;
56999;SDS011;42891;50.006;21.964;2023-04-03T03:16:52;3.58;;;3.28;;
56999;SDS011;42891;50.006;21.964;2023-04-03T03:20:53;4.60;;;4.10;;
56999;SDS011;42891;50.006;21.964;2023-04-03T03:24:54;6.47;;;4.20;;
56999;SDS011;42891;50.006;21.964;2023-04-03T03:28:55;4.35;;;3.53;;
56999;SDS011;42891;50.006;21.964;2023-04-03T03:32:55;4.00;;;3.60;;
56999;SDS011;42891;50.006;21.964;2023-04-03T03:36:56;3.95;;;3.60;;
56999;SDS011;42891;50.006;21.964;2023-04-03T03:40:56;4.47;;;4.07;;
56999;SDS011;42891;50.006;21.964;2023-04-03T03:44:56;4.40;;;3.97;;
56999;SDS011;42891;50.006;21.964;2023-04-03T03:48:57;4.55;;;3.70;;
56999;SDS011;42891;50.006;21.964;2023-04-03T03:52:57;4.20;;;3.80;;
56999;SDS011;42891;50.006;21.964;2023-04-03T03:56:57;3.58;;;3.28;;
56999;SDS011;42891;50.006;21.964;2023-04-03T04:01:01;3.65;;;3.30;;
56999;SDS011;42891;50.006;21.964;2023-04-03T04:05:03;3.65;;;3.35;;
56999;SDS011;42891;50.006;21.964;2023-04-03T04:09:04;4.88;;;3.75;;
56999;SDS011;42891;50.006;21.964;2023-04-03T04:13:04;4.03;;;3.63;;
56999;SDS011;42891;50.006;21.964;2023-04-03T04:17:04;4.53;;;4.13;;
56999;SDS011;42891;50.006;21.964;2023-04-03T04:21:05;4.22;;;3.78;;
56999;SDS011;42891;50.006;21.964;2023-04-03T04:25:05;4.22;;;3.67;;
56999;SDS011;42891;50.006;21.964;2023-04-03T04:29:06;4.63;;;3.92;;
56999;SDS011;42891;50.006;21.964;2023-04-03T04:33:06;4.20;;;3.78;;
56999;SDS011;42891;50.006;21.964;2023-04-03T04:37:07;5.18;;;3.58;;
56999;SDS011;42891;50.006;21.964;2023-04-03T04:41:07;4.82;;;4.30;;
56999;SDS011;42891;50.006;21.964;2023-04-03T04:45:08;4.65;;;3.63;;
56999;SDS011;42891;50.006;21.964;2023-04-03T04:49:08;5.25;;;3.35;;
56999;SDS011;42891;50.006;21.964;2023-04-03T04:53:09;4.10;;;3.70;;
56999;SDS011;42891;50.006;21.964;2023-04-03T04:57:09;4.22;;;3.72;;
56999;SDS011;42891;50.006;21.964;2023-04-03T05:01:10;5.25;;;3.28;;
56999;SDS011;42891;50.006;21.964;2023-04-03T05:05:11;3.42;;;3.13;;
56999;SDS011;42891;50.006;21.964;2023-04-03T05:09:11;4.45;;;3.30;;
56999;SDS011;42891;50.006;21.964;2023-04-03T05:13:12;4.32;;;3.55;;
56999;SDS011;42891;50.006;21.964;2023-04-03T05:17:12;3.50;;;3.20;;
56999;SDS011;42891;50.006;21.964;2023-04-03T05:21:13;3.28;;;2.97;;
56999;SDS011;42891;50.006;21.964;2023-04-03T05:25:13;4.53;;;3.50;;
56999;SDS011;42891;50.006;21.964;2023-04-03T05:29:13;3.33;;;2.90;;
56999;SDS011;42891;50.006;21.964;2023-04-03T05:33:14;3.90;;;3.47;;
56999;SDS011;42891;50.006;21.964;2023-04-03T05:37:14;3.17;;;2.97;;
56999;SDS011;42891;50.006;21.964;2023-04-03T05:41:15;4.47;;;3.75;;
56999;SDS011;42891;50.006;21.964;2023-04-03T05:45:16;5.30;;;3.53;;
56999;SDS011;42891;50.006;21.964;2023-04-03T05:49:16;3.75;;;3.33;;
56999;SDS011;42891;50.006;21.964;2023-04-03T05:53:25;3.47;;;3.17;;
56999;SDS011;42891;50.006;21.964;2023-04-03T05:57:28;15.35;;;4.18;;
56999;SDS011;42891;50.006;21.964;2023-04-03T06:01:28;4.55;;;2.90;;
56999;SDS011;42891;50.006;21.964;2023-04-03T06:05:28;5.28;;;3.40;;
56999;SDS011;42891;50.006;21.964;2023-04-03T06:09:29;4.55;;;2.97;;
56999;SDS011;42891;50.006;21.964;2023-04-03T06:13:30;6.60;;;4.18;;
56999;SDS011;42891;50.006;21.964;2023-04-03T06:17:31;4.38;;;3.97;;
56999;SDS011;42891;50.006;21.964;2023-04-03T06:21:31;4.50;;;3.40;;
56999;SDS011;42891;50.006;21.964;2023-04-03T06:25:32;4.47;;;3.38;;
56999;SDS011;42891;50.006;21.964;2023-04-03T06:29:33;4.25;;;3.10;;
56999;SDS011;42891;50.006;21.964;2023-04-03T06:33:34;4.70;;;4.05;;
56999;SDS011;42891;50.006;21.964;2023-04-03T06:37:34;4.43;;;3.80;;
56999;SDS011;42891;50.006;21.964;2023-04-03T06:41:35;6.57;;;5.15;;
56999;SDS011;42891;50.006;21.964;2023-04-03T06:45:35;9.27;;;6.95;;
56999;SDS011;42891;50.006;21.964;2023-04-03T06:49:36;6.75;;;5.68;;
56999;SDS011;42891;50.006;21.964;2023-04-03T06:53:37;5.10;;;4.38;;
56999;SDS011;42891;50.006;21.964;2023-04-03T06:57:37;8.32;;;6.07;;
56999;SDS011;42891;50.006;21.964;2023-04-03T07:01:37;7.07;;;5.82;;
56999;SDS011;42891;50.006;21.964;2023-04-03T07:05:38;6.93;;;5.90;;
56999;SDS011;42891;50.006;21.964;2023-04-03T07:09:38;8.35;;;5.60;;
56999;SDS011;42891;50.006;21.964;2023-04-03T07:13:38;9.18;;;7.15;;
56999;SDS011;42891;50.006;21.964;2023-04-03T07:17:39;7.10;;;6.28;;
56999;SDS011;42891;50.006;21.964;2023-04-03T07:21:40;8.75;;;6.63;;
56999;SDS011;42891;50.006;21.964;2023-04-03T07:25:45;11.13;;;6.03;;
56999;SDS011;42891;50.006;21.964;2023-04-03T07:29:46;9.63;;;5.97;;
56999;SDS011;42891;50.006;21.964;2023-04-03T07:33:48;8.10;;;5.45;;
56999;SDS011;42891;50.006;21.964;2023-04-03T07:37:48;6.32;;;4.90;;
56999;SDS011;42891;50.006;21.964;2023-04-03T07:41:49;6.63;;;4.78;;
56999;SDS011;42891;50.006;21.964;2023-04-03T07:45:49;7.07;;;5.10;;
56999;SDS011;42891;50.006;21.964;2023-04-03T07:49:50;9.48;;;6.15;;
56999;SDS011;42891;50.006;21.964;2023-04-03T07:53:51;6.10;;;4.38;;
56999;SDS011;42891;50.006;21.964;2023-04-03T07:57:51;7.30;;;5.50;;
56999;SDS011;42891;50.006;21.964;2023-04-03T08:01:52;6.10;;;4.40;;
56999;SDS011;42891;50.006;21.964;2023-04-03T08:10:50;10.93;;;5.93;;
56999;SDS011;42891;50.006;21.964;2023-04-03T08:14:52;5.15;;;4.32;;
56999;SDS011;42891;50.006;21.964;2023-04-03T08:18:53;8.80;;;4.13;;
56999;SDS011;42891;50.006;21.964;2023-04-03T08:22:54;4.68;;;4.20;;
56999;SDS011;42891;50.006;21.964;2023-04-03T08:26:54;6.10;;;4.78;;
56999;SDS011;42891;50.006;21.964;2023-04-03T08:30:55;9.65;;;6.28;;
56999;SDS011;42891;50.006;21.964;2023-04-03T08:34:56;7.07;;;5.10;;
56999;SDS011;42891;50.006;21.964;2023-04-03T08:38:56;7.00;;;5.32;;
56999;SDS011;42891;50.006;21.964;2023-04-03T08:51:46;7.05;;;5.45;;
56999;SDS011;42891;50.006;21.964;2023-04-03T08:55:50;10.73;;;5.88;;
56999;SDS011;42891;50.006;21.964;2023-04-03T08:59:51;8.52;;;5.53;;
56999;SDS011;42891;50.006;21.964;2023-04-03T09:03:52;7.10;;;5.30;;
56999;SDS011;42891;50.006;21.964;2023-04-03T09:07:55;7.13;;;5.35;;
56999;SDS011;42891;50.006;21.964;2023-04-03T09:16:25;8.80;;;5.80;;
56999;SDS011;42891;50.006;21.964;2023-04-03T09:29:17;8.93;;;5.90;;
56999;SDS011;42891;50.006;21.964;2023-04-03T09:33:20;12.93;;;6.95;;
56999;SDS011;42891;50.006;21.964;2023-04-03T09:37:41;13.65;;;6.43;;
56999;SDS011;42891;50.006;21.964;2023-04-03T09:41:54;17.33;;;7.40;;
56999;SDS011;42891;50.006;21.964;2023-04-03T09:50:37;9.63;;;6.32;;
56999;SDS011;42891;50.006;21.964;2023-04-03T09:54:55;10.73;;;5.70;;
56999;SDS011;42891;50.006;21.964;2023-04-03T09:59:11;8.18;;;4.85;;
56999;SDS011;42891;50.006;21.964;2023-04-03T10:03:27;10.15;;;5.88;;
56999;SDS011;42891;50.006;21.964;2023-04-03T10:07:32;8.75;;;5.68;;
56999;SDS011;42891;50.006;21.964;2023-04-03T10:11:35;7.47;;;5.60;;
56999;SDS011;42891;50.006;21.964;2023-04-03T10:15:42;8.52;;;5.47;;
56999;SDS011;42891;50.006;21.964;2023-04-03T10:19:50;8.45;;;5.45;;
56999;SDS011;42891;50.006;21.964;2023-04-03T10:28:10;12.23;;;5.78;;
56999;SDS011;42891;50.006;21.964;2023-04-03T10:32:27;9.88;;;6.03;;
56999;SDS011;42891;50.006;21.964;2023-04-03T10:36:46;8.60;;;5.63;;
56999;SDS011;42891;50.006;21.964;2023-04-03T10:40:55;9.40;;;5.00;;
56999;SDS011;42891;50.006;21.964;2023-04-03T10:45:03;7.35;;;4.95;;
56999;SDS011;42891;50.006;21.964;2023-04-03T10:58:32;13.82;;;5.93;;
56999;SDS011;42891;50.006;21.964;2023-04-03T11:06:41;8.77;;;5.00;;
56999;SDS011;42891;50.006;21.964;2023-04-03T11:10:48;7.45;;;5.22;;
56999;SDS011;42891;50.006;21.964;2023-04-03T11:14:51;8.23;;;5.40;;
56999;SDS011;42891;50.006;21.964;2023-04-03T11:18:56;9.52;;;5.80;;
56999;SDS011;42891;50.006;21.964;2023-04-03T11:27:19;9.27;;;4.95;;
56999;SDS011;42891;50.006;21.964;2023-04-03T11:35:28;8.63;;;5.38;;
56999;SDS011;42891;50.006;21.964;2023-04-03T11:39:33;10.93;;;5.53;;
56999;SDS011;42891;50.006;21.964;2023-04-03T11:43:43;9.55;;;5.80;;
56999;SDS011;42891;50.006;21.964;2023-04-03T11:48:09;22.95;;;11.07;;
56999;SDS011;42891;50.006;21.964;2023-04-03T11:56:38;15.05;;;7.78;;
56999;SDS011;42891;50.006;21.964;2023-04-03T12:09:35;10.32;;;6.30;;
56999;SDS011;42891;50.006;21.964;2023-04-03T12:17:56;9.23;;;5.07;;
56999;SDS011;42891;50.006;21.964;2023-04-03T12:30:26;10.18;;;5.25;;
56999;SDS011;42891;50.006;21.964;2023-04-03T12:47:24;7.50;;;5.13;;
56999;SDS011;42891;50.006;21.964;2023-04-03T12:51:37;8.70;;;5.03;;
56999;SDS011;42891;50.006;21.964;2023-04-03T12:55:40;8.90;;;5.15;;
56999;SDS011;42891;50.006;21.964;2023-04-03T12:59:40;9.40;;;5.55;;
56999;SDS011;42891;50.006;21.964;2023-04-03T13:03:44;12.52;;;6.53;;
56999;SDS011;42891;50.006;21.964;2023-04-03T13:07:52;15.30;;;7.00;;
56999;SDS011;42891;50.006;21.964;2023-04-03T13:11:59;8.35;;;5.00;;
56999;SDS011;42891;50.006;21.964;2023-04-03T13:20:16;10.70;;;5.57;;
56999;SDS011;42891;50.006;21.964;2023-04-03T13:24:19;13.13;;;7.20;;
56999;SDS011;42891;50.006;21.964;2023-04-03T13:28:21;10.10;;;6.35;;
56999;SDS011;42891;50.006;21.964;2023-04-03T13:32:25;9.75;;;5.55;;
56999;SDS011;42891;50.006;21.964;2023-04-03T13:36:38;6.30;;;3.72;;
56999;SDS011;42891;50.006;21.964;2023-04-03T13:40:51;7.30;;;4.68;;
56999;SDS011;42891;50.006;21.964;2023-04-03T13:53:41;7.15;;;4.22;;
56999;SDS011;42891;50.006;21.964;2023-04-03T14:06:04;6.88;;;4.60;;
56999;SDS011;42891;50.006;21.964;2023-04-03T14:10:06;10.18;;;4.93;;
56999;SDS011;42891;50.006;21.964;2023-04-03T14:14:11;7.68;;;4.90;;
56999;SDS011;42891;50.006;21.964;2023-04-03T14:18:16;8.88;;;5.57;;
56999;SDS011;42891;50.006;21.964;2023-04-03T14:22:23;6.07;;;4.95;;
56999;SDS011;42891;50.006;21.964;2023-04-03T14:26:28;11.05;;;5.70;;
56999;SDS011;42891;50.006;21.964;2023-04-03T14:30:30;7.70;;;5.57;;
56999;SDS011;42891;50.006;21.964;2023-04-03T14:43:30;9.15;;;5.82;;
56999;SDS011;42891;50.006;21.964;2023-04-03T14:47:30;9.48;;;5.75;;
56999;SDS011;42891;50.006;21.964;2023-04-03T14:51:31;10.02;;;6.10;;
56999;SDS011;42891;50.006;21.964;2023-04-03T14:55:31;9.38;;;5.57;;
56999;SDS011;42891;50.006;21.964;2023-04-03T14:59:32;9.98;;;6.70;;
56999;SDS011;42891;50.006;21.964;2023-04-03T15:03:32;10.15;;;6.80;;
56999;SDS011;42891;50.006;21.964;2023-04-03T15:07:37;10.95;;;6.57;;
56999;SDS011;42891;50.006;21.964;2023-04-03T15:11:39;14.30;;;8.57;;
56999;SDS011;42891;50.006;21.964;2023-04-03T15:15:39;14.15;;;8.95;;
56999;SDS011;42891;50.006;21.964;2023-04-03T15:19:41;10.95;;;7.68;;
56999;SDS011;42891;50.006;21.964;2023-04-03T15:23:41;10.02;;;7.10;;
56999;SDS011;42891;50.006;21.964;2023-04-03T15:27:42;7.57;;;4.22;;
56999;SDS011;42891;50.006;21.964;2023-04-03T15:31:43;7.60;;;4.22;;
56999;SDS011;42891;50.006;21.964;2023-04-03T15:35:44;6.82;;;4.60;;
56999;SDS011;42891;50.006;21.964;2023-04-03T15:39:44;6.97;;;4.60;;
56999;SDS011;42891;50.006;21.964;2023-04-03T15:43:45;11.32;;;5.50;;
56999;SDS011;42891;50.006;21.964;2023-04-03T15:47:45;6.72;;;4.85;;
56999;SDS011;42891;50.006;21.964;2023-04-03T15:51:45;11.25;;;7.03;;
56999;SDS011;42891;50.006;21.964;2023-04-03T15:55:46;11.55;;;6.00;;
56999;SDS011;42891;50.006;21.964;2023-04-03T15:59:46;11.63;;;7.18;;
56999;SDS011;42891;50.006;21.964;2023-04-03T16:03:46;11.60;;;5.95;;
56999;SDS011;42891;50.006;21.964;2023-04-03T16:07:47;14.02;;;8.52;;
56999;SDS011;42891;50.006;21.964;2023-04-03T16:11:48;16.17;;;8.52;;
56999;SDS011;42891;50.006;21.964;2023-04-03T16:15:48;9.98;;;5.60;;
56999;SDS011;42891;50.006;21.964;2023-04-03T16:19:49;9.40;;;6.50;;
56999;SDS011;42891;50.006;21.964;2023-04-03T16:23:49;12.30;;;7.07;;
56999;SDS011;42891;50.006;21.964;2023-04-03T16:27:50;10.73;;;6.50;;
56999;SDS011;42891;50.006;21.964;2023-04-03T16:31:51;12.45;;;6.95;;
56999;SDS011;42891;50.006;21.964;2023-04-03T16:35:51;13.20;;;8.63;;
56999;SDS011;42891;50.006;21.964;2023-04-03T16:39:52;15.90;;;9.05;;
56999;SDS011;42891;50.006;21.964;2023-04-03T16:43:53;20.15;;;10.20;;
56999;SDS011;42891;50.006;21.964;2023-04-03T16:47:53;19.00;;;9.30;;
56999;SDS011;42891;50.006;21.964;2023-04-03T16:51:54;12.27;;;7.75;;
56999;SDS011;42891;50.006;21.964;2023-04-03T16:55:54;16.63;;;8.82;;
56999;SDS011;42891;50.006;21.964;2023-04-03T16:59:57;21.15;;;11.25;;
56999;SDS011;42891;50.006;21.964;2023-04-03T17:03:58;16.75;;;10.85;;
56999;SDS011;42891;50.006;21.964;2023-04-03T17:07:58;16.92;;;9.60;;
56999;SDS011;42891;50.006;21.964;2023-04-03T17:11:59;13.38;;;7.53;;
56999;SDS011;42891;50.006;21.964;2023-04-03T17:15:59;13.25;;;7.13;;
56999;SDS011;42891;50.006;21.964;2023-04-03T17:20:00;12.20;;;7.13;;
56999;SDS011;42891;50.006;21.964;2023-04-03T17:24:02;16.58;;;7.43;;
56999;SDS011;42891;50.006;21.964;2023-04-03T17:28:07;12.38;;;7.10;;
56999;SDS011;42891;50.006;21.964;2023-04-03T17:32:07;14.07;;;7.50;;
56999;SDS011;42891;50.006;21.964;2023-04-03T17:36:07;12.55;;;7.00;;
56999;SDS011;42891;50.006;21.964;2023-04-03T17:40:08;14.55;;;7.18;;
56999;SDS011;42891;50.006;21.964;2023-04-03T17:44:09;12.57;;;6.53;;
56999;SDS011;42891;50.006;21.964;2023-04-03T17:48:09;15.55;;;7.60;;
56999;SDS011;42891;50.006;21.964;2023-04-03T17:52:10;14.98;;;7.43;;
56999;SDS011;42891;50.006;21.964;2023-04-03T17:56:11;15.52;;;7.55;;
56999;SDS011;42891;50.006;21.964;2023-04-03T18:00:13;17.20;;;8.63;;
56999;SDS011;42891;50.006;21.964;2023-04-03T18:04:15;15.00;;;6.50;;
56999;SDS011;42891;50.006;21.964;2023-04-03T18:08:15;11.45;;;5.75;;
56999;SDS011;42891;50.006;21.964;2023-04-03T18:12:16;12.35;;;7.18;;
56999;SDS011;42891;50.006;21.964;2023-04-03T18:16:17;19.92;;;8.68;;
56999;SDS011;42891;50.006;21.964;2023-04-03T18:20:17;20.88;;;10.07;;
56999;SDS011;42891;50.006;21.964;2023-04-03T18:24:18;16.77;;;8.75;;
56999;SDS011;42891;50.006;21.964;2023-04-03T18:28:20;17.73;;;8.80;;
56999;SDS011;42891;50.006;21.964;2023-04-03T18:32:21;10.95;;;6.80;;
56999;SDS011;42891;50.006;21.964;2023-04-03T18:36:22;11.65;;;6.78;;
56999;SDS011;42891;50.006;21.964;2023-04-03T18:40:22;12.60;;;7.10;;
56999;SDS011;42891;50.006;21.964;2023-04-03T18:44:23;12.68;;;7.68;;
56999;SDS011;42891;50.006;21.964;2023-04-03T18:48:25;18.50;;;8.02;;
56999;SDS011;42891;50.006;21.964;2023-04-03T18:52:26;16.70;;;8.90;;
56999;SDS011;42891;50.006;21.964;2023-04-03T18:56:26;19.20;;;8.73;;
56999;SDS011;42891;50.006;21.964;2023-04-03T19:00:27;15.15;;;7.72;;
56999;SDS011;42891;50.006;21.964;2023-04-03T19:04:28;15.73;;;7.82;;
56999;SDS011;42891;50.006;21.964;2023-04-03T19:08:29;16.40;;;9.18;;
56999;SDS011;42891;50.006;21.964;2023-04-03T19:12:30;18.50;;;9.57;;
56999;SDS011;42891;50.006;21.964;2023-04-03T19:16:31;19.33;;;10.20;;
56999;SDS011;42891;50.006;21.964;2023-04-03T19:20:35;19.85;;;10.68;;
56999;SDS011;42891;50.006;21.964;2023-04-03T19:24:38;19.38;;;10.02;;
56999;SDS011;42891;50.006;21.964;2023-04-03T19:28:39;18.02;;;9.50;;
56999;SDS011;42891;50.006;21.964;2023-04-03T19:32:40;17.90;;;9.18;;
56999;SDS011;42891;50.006;21.964;2023-04-03T19:36:41;15.40;;;8.25;;
56999;SDS011;42891;50.006;21.964;2023-04-03T19:40:42;12.40;;;7.15;;
56999;SDS011;42891;50.006;21.964;2023-04-03T19:44:43;16.00;;;8.32;;
56999;SDS011;42891;50.006;21.964;2023-04-03T19:48:45;15.05;;;7.28;;
56999;SDS011;42891;50.006;21.964;2023-04-03T19:52:46;13.60;;;8.10;;
56999;SDS011;42891;50.006;21.964;2023-04-03T19:56:46;14.98;;;8.00;;
56999;SDS011;42891;50.006;21.964;2023-04-03T20:00:47;16.33;;;7.72;;
56999;SDS011;42891;50.006;21.964;2023-04-03T20:04:48;15.07;;;8.70;;
56999;SDS011;42891;50.006;21.964;2023-04-03T20:08:48;18.90;;;10.35;;
56999;SDS011;42891;50.006;21.964;2023-04-03T20:12:48;14.55;;;7.85;;
56999;SDS011;42891;50.006;21.964;2023-04-03T20:16:49;14.43;;;8.52;;
56999;SDS011;42891;50.006;21.964;2023-04-03T20:20:53;15.55;;;8.95;;
56999;SDS011;42891;50.006;21.964;2023-04-03T20:28:57;18.85;;;9.82;;
56999;SDS011;42891;50.006;21.964;2023-04-03T20:32:59;16.90;;;9.50;;
56999;SDS011;42891;50.006;21.964;2023-04-03T20:37:00;14.27;;;7.90;;
56999;SDS011;42891;50.006;21.964;2023-04-03T20:41:00;15.45;;;8.40;;
56999;SDS011;42891;50.006;21.964;2023-04-03T20:45:00;17.33;;;8.23;;
56999;SDS011;42891;50.006;21.964;2023-04-03T20:49:01;20.88;;;9.65;;
56999;SDS011;42891;50.006;21.964;2023-04-03T20:53:01;15.48;;;8.02;;
56999;SDS011;42891;50.006;21.964;2023-04-03T20:57:02;15.88;;;8.38;;
56999;SDS011;42891;50.006;21.964;2023-04-03T21:01:03;15.75;;;8.55;;
56999;SDS011;42891;50.006;21.964;2023-04-03T21:05:12;16.20;;;7.47;;
56999;SDS011;42891;50.006;21.964;2023-04-03T21:22:39;11.23;;;6.88;;
56999;SDS011;42891;50.006;21.964;2023-04-03T21:26:42;11.25;;;5.70;;
56999;SDS011;42891;50.006;21.964;2023-04-03T21:30:43;9.80;;;5.50;;
56999;SDS011;42891;50.006;21.964;2023-04-03T21:34:43;8.77;;;5.47;;
56999;SDS011;42891;50.006;21.964;2023-04-03T21:38:44;8.27;;;5.40;;
56999;SDS011;42891;50.006;21.964;2023-04-03T21:42:46;10.35;;;5.75;;
56999;SDS011;42891;50.006;21.964;2023-04-03T21:46:52;12.27;;;6.35;;
56999;SDS011;42891;50.006;21.964;2023-04-03T21:51:00;11.48;;;6.95;;
56999;SDS011;42891;50.006;21.964;2023-04-03T21:55:01;14.38;;;6.18;;
56999;SDS011;42891;50.006;21.964;2023-04-03T21:59:01;9.52;;;5.93;;
56999;SDS011;42891;50.006;21.964;2023-04-03T22:03:02;10.63;;;5.45;;
56999;SDS011;42891;50.006;21.964;2023-04-03T22:07:03;10.20;;;5.65;;
56999;SDS011;42891;50.006;21.964;2023-04-03T22:11:04;9.10;;;5.03;;
56999;SDS011;42891;50.006;21.964;2023-04-03T22:15:06;10.82;;;5.32;;
56999;SDS011;42891;50.006;21.964;2023-04-03T22:19:07;11.10;;;6.55;;
56999;SDS011;42891;50.006;21.964;2023-04-03T22:23:08;9.18;;;5.30;;
56999;SDS011;42891;50.006;21.964;2023-04-03T22:27:08;7.70;;;4.97;;
56999;SDS011;42891;50.006;21.964;2023-04-03T22:31:08;10.93;;;5.65;;
56999;SDS011;42891;50.006;21.964;2023-04-03T22:40:10;12.57;;;5.63;;
56999;SDS011;42891;50.006;21.964;2023-04-03T22:44:11;10.65;;;5.95;;
56999;SDS011;42891;50.006;21.964;2023-04-03T22:48:11;14.88;;;7.30;;
56999;SDS011;42891;50.006;21.964;2023-04-03T22:52:12;12.60;;;6.78;;
56999;SDS011;42891;50.006;21.964;2023-04-03T22:56:12;13.30;;;7.03;;
56999;SDS011;42891;50.006;21.964;2023-04-03T23:00:13;10.65;;;6.40;;
56999;SDS011;42891;50.006;21.964;2023-04-03T23:04:17;12.02;;;6.32;;
56999;SDS011;42891;50.006;21.964;2023-04-03T23:08:17;16.30;;;7.20;;
56999;SDS011;42891;50.006;21.964;2023-04-03T23:12:18;12.63;;;6.82;;
56999;SDS011;42891;50.006;21.964;2023-04-03T23:16:18;15.32;;;7.32;;
56999;SDS011;42891;50.006;21.964;2023-04-03T23:20:19;11.32;;;6.70;;
56999;SDS011;42891;50.006;21.964;2023-04-03T23:24:19;11.30;;;6.45;;
56999;SDS011;42891;50.006;21.964;2023-04-03T23:28:20;11.68;;;6.93;;
56999;SDS011;42891;50.006;21.964;2023-04-03T23:32:20;12.05;;;7.07;;
56999;SDS011;42891;50.006;21.964;2023-04-03T23:36:21;11.23;;;6.55;;
56999;SDS011;42891;50.006;21.964;2023-04-03T23:40:21;12.55;;;6.97;;
56999;SDS011;42891;50.006;21.964;2023-04-03T23:44:22;11.15;;;7.00;;
56999;SDS011;42891;50.006;21.964;2023-04-03T23:48:22;11.88;;;6.53;;
56999;SDS011;42891;50.006;21.964;2023-04-03T23:52:22;12.77;;;6.93;;
56999;SDS011;42891;50.006;21.964;2023-04-03T23:56:23;11.30;;;6.93;;
